Terminal Aerodrome Forecast
Issued by NWS Cleveland, OH

Home | Current Version | Previous Version | Graphics & Text | Print | Product List | Glossary Off
Versions: 1 2 3 4 5 6 7 8 9 10 11 12 13 14 15 16 17 18 19 20 21 22

000
FTUS41 KCLE 231700
TAFYNG
TAF
KYNG 231730Z 2318/2418 33010KT P6SM SCT025
      TEMPO 2318/2321 BKN025
     FM232100 33006KT P6SM FEW025
     FM232300 32005KT P6SM SCT250
     FM241000 VRB03KT P6SM BKN100
     FM241600 25006KT P6SM SCT045 BKN100=

USA.gov is the U.S. government's official web portal to all federal, state and local government web resources and services.